sensor_id;sensor_type;location;lat;lon;timestamp;P1;durP1;ratioP1;P2;durP2;ratioP2
81651;SDS011;71061;55.714;37.794;2024-01-06T00:02:08;9.90;;;3.17;;
81651;SDS011;71061;55.714;37.794;2024-01-06T00:04:34;7.90;;;3.25;;
81651;SDS011;71061;55.714;37.794;2024-01-06T00:07:00;12.77;;;4.13;;
81651;SDS011;71061;55.714;37.794;2024-01-06T00:09:25;12.75;;;4.63;;
81651;SDS011;71061;55.714;37.794;2024-01-06T00:11:51;13.07;;;3.88;;
81651;SDS011;71061;55.714;37.794;2024-01-06T00:14:17;10.02;;;4.97;;
81651;SDS011;71061;55.714;37.794;2024-01-06T00:16:42;8.57;;;3.58;;
81651;SDS011;71061;55.714;37.794;2024-01-06T00:19:08;11.20;;;4.32;;
81651;SDS011;71061;55.714;37.794;2024-01-06T00:21:34;9.68;;;4.55;;
81651;SDS011;71061;55.714;37.794;2024-01-06T00:24:00;13.95;;;4.22;;
81651;SDS011;71061;55.714;37.794;2024-01-06T00:26:25;10.20;;;3.45;;
81651;SDS011;71061;55.714;37.794;2024-01-06T00:28:51;11.13;;;3.50;;
81651;SDS011;71061;55.714;37.794;2024-01-06T00:31:17;11.40;;;5.50;;
81651;SDS011;71061;55.714;37.794;2024-01-06T00:33:43;7.47;;;3.60;;
81651;SDS011;71061;55.714;37.794;2024-01-06T00:36:09;12.40;;;3.95;;
81651;SDS011;71061;55.714;37.794;2024-01-06T00:38:34;15.13;;;3.72;;
81651;SDS011;71061;55.714;37.794;2024-01-06T00:41:01;9.75;;;2.90;;
81651;SDS011;71061;55.714;37.794;2024-01-06T00:43:27;12.27;;;3.75;;
81651;SDS011;71061;55.714;37.794;2024-01-06T00:45:53;11.95;;;3.75;;
81651;SDS011;71061;55.714;37.794;2024-01-06T00:48:18;13.57;;;4.72;;
81651;SDS011;71061;55.714;37.794;2024-01-06T00:50:44;11.52;;;3.78;;
81651;SDS011;71061;55.714;37.794;2024-01-06T00:53:11;9.25;;;3.28;;
81651;SDS011;71061;55.714;37.794;2024-01-06T00:55:37;10.35;;;4.30;;
81651;SDS011;71061;55.714;37.794;2024-01-06T00:58:03;14.73;;;3.83;;
81651;SDS011;71061;55.714;37.794;2024-01-06T01:00:28;11.40;;;3.67;;
81651;SDS011;71061;55.714;37.794;2024-01-06T01:02:54;10.60;;;4.40;;
81651;SDS011;71061;55.714;37.794;2024-01-06T01:05:20;11.98;;;4.13;;
81651;SDS011;71061;55.714;37.794;2024-01-06T01:07:46;12.75;;;4.40;;
81651;SDS011;71061;55.714;37.794;2024-01-06T01:10:11;9.15;;;3.33;;
81651;SDS011;71061;55.714;37.794;2024-01-06T01:12:37;11.82;;;4.28;;
81651;SDS011;71061;55.714;37.794;2024-01-06T01:15:03;9.52;;;3.60;;
81651;SDS011;71061;55.714;37.794;2024-01-06T01:17:31;9.05;;;3.70;;
81651;SDS011;71061;55.714;37.794;2024-01-06T01:19:56;7.28;;;3.38;;
81651;SDS011;71061;55.714;37.794;2024-01-06T01:22:22;11.38;;;4.28;;
81651;SDS011;71061;55.714;37.794;2024-01-06T01:24:48;11.52;;;4.10;;
81651;SDS011;71061;55.714;37.794;2024-01-06T01:27:13;10.15;;;3.38;;
81651;SDS011;71061;55.714;37.794;2024-01-06T01:29:39;12.35;;;3.80;;
81651;SDS011;71061;55.714;37.794;2024-01-06T01:32:05;11.57;;;4.28;;
81651;SDS011;71061;55.714;37.794;2024-01-06T01:34:31;13.57;;;3.67;;
81651;SDS011;71061;55.714;37.794;2024-01-06T01:36:57;11.02;;;3.65;;
81651;SDS011;71061;55.714;37.794;2024-01-06T01:39:23;13.65;;;3.75;;
81651;SDS011;71061;55.714;37.794;2024-01-06T01:41:48;10.20;;;3.88;;
81651;SDS011;71061;55.714;37.794;2024-01-06T01:44:14;10.18;;;4.00;;
81651;SDS011;71061;55.714;37.794;2024-01-06T01:46:41;13.27;;;5.03;;
81651;SDS011;71061;55.714;37.794;2024-01-06T01:49:06;7.70;;;3.10;;
81651;SDS011;71061;55.714;37.794;2024-01-06T01:51:33;7.07;;;2.95;;
81651;SDS011;71061;55.714;37.794;2024-01-06T01:54:01;8.10;;;2.72;;
81651;SDS011;71061;55.714;37.794;2024-01-06T01:56:27;8.25;;;4.30;;
81651;SDS011;71061;55.714;37.794;2024-01-06T01:58:54;8.52;;;3.85;;
81651;SDS011;71061;55.714;37.794;2024-01-06T02:01:20;8.88;;;4.07;;
81651;SDS011;71061;55.714;37.794;2024-01-06T02:03:46;12.32;;;4.53;;
81651;SDS011;71061;55.714;37.794;2024-01-06T02:06:12;16.50;;;3.83;;
81651;SDS011;71061;55.714;37.794;2024-01-06T02:08:38;9.02;;;3.45;;
81651;SDS011;71061;55.714;37.794;2024-01-06T02:11:04;10.38;;;4.70;;
81651;SDS011;71061;55.714;37.794;2024-01-06T02:13:34;9.38;;;3.22;;
81651;SDS011;71061;55.714;37.794;2024-01-06T02:16:02;12.35;;;3.65;;
81651;SDS011;71061;55.714;37.794;2024-01-06T02:18:30;10.70;;;4.35;;
81651;SDS011;71061;55.714;37.794;2024-01-06T02:20:58;8.68;;;4.13;;
81651;SDS011;71061;55.714;37.794;2024-01-06T02:23:25;11.65;;;3.65;;
81651;SDS011;71061;55.714;37.794;2024-01-06T02:25:52;11.93;;;3.42;;
81651;SDS011;71061;55.714;37.794;2024-01-06T02:28:18;10.63;;;4.20;;
81651;SDS011;71061;55.714;37.794;2024-01-06T02:30:44;9.40;;;3.83;;
81651;SDS011;71061;55.714;37.794;2024-01-06T02:33:09;10.40;;;3.33;;
81651;SDS011;71061;55.714;37.794;2024-01-06T02:35:35;15.82;;;3.97;;
81651;SDS011;71061;55.714;37.794;2024-01-06T02:38:01;10.15;;;3.88;;
81651;SDS011;71061;55.714;37.794;2024-01-06T02:40:27;12.25;;;3.42;;
81651;SDS011;71061;55.714;37.794;2024-01-06T02:42:53;9.60;;;3.65;;
81651;SDS011;71061;55.714;37.794;2024-01-06T02:45:19;8.10;;;2.95;;
81651;SDS011;71061;55.714;37.794;2024-01-06T02:47:45;10.80;;;3.88;;
81651;SDS011;71061;55.714;37.794;2024-01-06T02:50:11;9.90;;;4.00;;
81651;SDS011;71061;55.714;37.794;2024-01-06T02:52:36;8.98;;;3.60;;
81651;SDS011;71061;55.714;37.794;2024-01-06T02:55:02;10.20;;;3.03;;
81651;SDS011;71061;55.714;37.794;2024-01-06T02:57:30;9.93;;;4.13;;
81651;SDS011;71061;55.714;37.794;2024-01-06T02:59:56;14.05;;;4.60;;
81651;SDS011;71061;55.714;37.794;2024-01-06T03:02:22;8.18;;;3.58;;
81651;SDS011;71061;55.714;37.794;2024-01-06T03:04:48;7.72;;;3.40;;
81651;SDS011;71061;55.714;37.794;2024-01-06T03:07:14;18.20;;;4.13;;
81651;SDS011;71061;55.714;37.794;2024-01-06T03:09:40;14.02;;;4.47;;
81651;SDS011;71061;55.714;37.794;2024-01-06T03:12:06;13.07;;;4.50;;
81651;SDS011;71061;55.714;37.794;2024-01-06T03:14:34;8.95;;;3.55;;
81651;SDS011;71061;55.714;37.794;2024-01-06T03:17:00;11.20;;;4.20;;
81651;SDS011;71061;55.714;37.794;2024-01-06T03:19:26;11.85;;;3.42;;
81651;SDS011;71061;55.714;37.794;2024-01-06T03:21:53;8.93;;;3.88;;
81651;SDS011;71061;55.714;37.794;2024-01-06T03:24:19;9.93;;;3.75;;
81651;SDS011;71061;55.714;37.794;2024-01-06T03:26:46;16.80;;;4.13;;
81651;SDS011;71061;55.714;37.794;2024-01-06T03:29:12;11.52;;;4.20;;
81651;SDS011;71061;55.714;37.794;2024-01-06T03:31:37;11.65;;;3.50;;
81651;SDS011;71061;55.714;37.794;2024-01-06T03:34:03;10.20;;;3.53;;
81651;SDS011;71061;55.714;37.794;2024-01-06T03:39:14;11.27;;;4.07;;
81651;SDS011;71061;55.714;37.794;2024-01-06T03:41:40;11.38;;;4.32;;
81651;SDS011;71061;55.714;37.794;2024-01-06T03:44:06;10.32;;;4.45;;
81651;SDS011;71061;55.714;37.794;2024-01-06T03:46:33;11.48;;;5.78;;
81651;SDS011;71061;55.714;37.794;2024-01-06T03:49:00;12.43;;;4.05;;
81651;SDS011;71061;55.714;37.794;2024-01-06T03:51:25;11.07;;;5.28;;
81651;SDS011;71061;55.714;37.794;2024-01-06T03:53:51;10.57;;;4.63;;
81651;SDS011;71061;55.714;37.794;2024-01-06T03:56:17;13.52;;;3.58;;
81651;SDS011;71061;55.714;37.794;2024-01-06T03:58:43;9.73;;;4.28;;
81651;SDS011;71061;55.714;37.794;2024-01-06T04:01:09;7.78;;;3.00;;
81651;SDS011;71061;55.714;37.794;2024-01-06T04:03:35;11.15;;;3.92;;
81651;SDS011;71061;55.714;37.794;2024-01-06T04:06:01;11.30;;;3.65;;
81651;SDS011;71061;55.714;37.794;2024-01-06T04:08:27;11.98;;;3.97;;
81651;SDS011;71061;55.714;37.794;2024-01-06T04:10:52;9.93;;;3.65;;
81651;SDS011;71061;55.714;37.794;2024-01-06T04:13:18;9.38;;;4.57;;
81651;SDS011;71061;55.714;37.794;2024-01-06T04:15:44;14.18;;;4.35;;
81651;SDS011;71061;55.714;37.794;2024-01-06T04:18:09;9.02;;;4.03;;
81651;SDS011;71061;55.714;37.794;2024-01-06T04:20:35;9.77;;;3.58;;
81651;SDS011;71061;55.714;37.794;2024-01-06T04:23:02;10.10;;;4.00;;
81651;SDS011;71061;55.714;37.794;2024-01-06T04:25:27;9.85;;;4.38;;
81651;SDS011;71061;55.714;37.794;2024-01-06T04:27:53;14.25;;;4.75;;
81651;SDS011;71061;55.714;37.794;2024-01-06T04:30:19;11.30;;;4.82;;
81651;SDS011;71061;55.714;37.794;2024-01-06T04:32:46;12.02;;;4.60;;
81651;SDS011;71061;55.714;37.794;2024-01-06T04:35:14;11.57;;;4.38;;
81651;SDS011;71061;55.714;37.794;2024-01-06T04:37:39;12.85;;;4.13;;
81651;SDS011;71061;55.714;37.794;2024-01-06T04:40:05;12.15;;;4.05;;
81651;SDS011;71061;55.714;37.794;2024-01-06T04:42:33;16.17;;;4.20;;
81651;SDS011;71061;55.714;37.794;2024-01-06T04:44:59;15.55;;;5.60;;
81651;SDS011;71061;55.714;37.794;2024-01-06T04:47:25;13.73;;;5.18;;
81651;SDS011;71061;55.714;37.794;2024-01-06T04:49:51;13.90;;;4.18;;
81651;SDS011;71061;55.714;37.794;2024-01-06T04:52:17;11.65;;;4.38;;
81651;SDS011;71061;55.714;37.794;2024-01-06T04:54:43;12.82;;;4.20;;
81651;SDS011;71061;55.714;37.794;2024-01-06T04:57:09;12.02;;;4.05;;
81651;SDS011;71061;55.714;37.794;2024-01-06T04:59:35;13.15;;;4.47;;
81651;SDS011;71061;55.714;37.794;2024-01-06T05:02:00;12.82;;;3.70;;
81651;SDS011;71061;55.714;37.794;2024-01-06T05:04:26;11.30;;;4.30;;
81651;SDS011;71061;55.714;37.794;2024-01-06T05:06:52;17.70;;;4.97;;
81651;SDS011;71061;55.714;37.794;2024-01-06T05:09:18;12.82;;;6.32;;
81651;SDS011;71061;55.714;37.794;2024-01-06T05:11:44;17.65;;;5.03;;
81651;SDS011;71061;55.714;37.794;2024-01-06T05:14:10;14.43;;;3.90;;
81651;SDS011;71061;55.714;37.794;2024-01-06T05:16:36;11.75;;;3.65;;
81651;SDS011;71061;55.714;37.794;2024-01-06T05:19:02;15.57;;;5.53;;
81651;SDS011;71061;55.714;37.794;2024-01-06T05:21:28;9.50;;;3.88;;
81651;SDS011;71061;55.714;37.794;2024-01-06T05:23:54;8.75;;;2.90;;
81651;SDS011;71061;55.714;37.794;2024-01-06T05:26:20;10.70;;;3.88;;
81651;SDS011;71061;55.714;37.794;2024-01-06T05:28:46;10.90;;;3.63;;
81651;SDS011;71061;55.714;37.794;2024-01-06T05:31:12;18.65;;;4.85;;
81651;SDS011;71061;55.714;37.794;2024-01-06T05:33:37;11.45;;;5.10;;
81651;SDS011;71061;55.714;37.794;2024-01-06T05:36:03;11.38;;;4.20;;
81651;SDS011;71061;55.714;37.794;2024-01-06T05:38:29;12.27;;;4.88;;
81651;SDS011;71061;55.714;37.794;2024-01-06T05:40:55;18.25;;;5.60;;
81651;SDS011;71061;55.714;37.794;2024-01-06T05:43:21;15.90;;;5.65;;
81651;SDS011;71061;55.714;37.794;2024-01-06T05:45:47;12.48;;;4.95;;
81651;SDS011;71061;55.714;37.794;2024-01-06T05:48:12;19.52;;;4.90;;
81651;SDS011;71061;55.714;37.794;2024-01-06T05:50:38;12.50;;;5.50;;
81651;SDS011;71061;55.714;37.794;2024-01-06T05:53:05;14.07;;;5.25;;
81651;SDS011;71061;55.714;37.794;2024-01-06T05:55:31;14.27;;;5.35;;
81651;SDS011;71061;55.714;37.794;2024-01-06T05:57:57;13.52;;;4.85;;
81651;SDS011;71061;55.714;37.794;2024-01-06T06:00:22;9.35;;;4.07;;
81651;SDS011;71061;55.714;37.794;2024-01-06T06:02:48;11.95;;;4.53;;
81651;SDS011;71061;55.714;37.794;2024-01-06T06:05:14;10.95;;;4.65;;
81651;SDS011;71061;55.714;37.794;2024-01-06T06:07:40;13.75;;;5.85;;
81651;SDS011;71061;55.714;37.794;2024-01-06T06:10:07;14.02;;;5.13;;
81651;SDS011;71061;55.714;37.794;2024-01-06T06:12:34;11.10;;;4.78;;
81651;SDS011;71061;55.714;37.794;2024-01-06T06:15:00;12.43;;;3.90;;
81651;SDS011;71061;55.714;37.794;2024-01-06T06:17:26;11.57;;;5.03;;
81651;SDS011;71061;55.714;37.794;2024-01-06T06:19:52;11.95;;;4.90;;
81651;SDS011;71061;55.714;37.794;2024-01-06T06:22:17;9.73;;;4.47;;
81651;SDS011;71061;55.714;37.794;2024-01-06T06:24:43;11.80;;;5.20;;
81651;SDS011;71061;55.714;37.794;2024-01-06T06:27:09;14.23;;;5.50;;
81651;SDS011;71061;55.714;37.794;2024-01-06T06:29:34;9.52;;;5.22;;
81651;SDS011;71061;55.714;37.794;2024-01-06T06:32:00;12.48;;;5.32;;
81651;SDS011;71061;55.714;37.794;2024-01-06T06:34:26;16.60;;;5.40;;
81651;SDS011;71061;55.714;37.794;2024-01-06T06:36:52;12.90;;;5.15;;
81651;SDS011;71061;55.714;37.794;2024-01-06T06:39:17;10.95;;;4.82;;
81651;SDS011;71061;55.714;37.794;2024-01-06T06:41:43;10.82;;;4.75;;
81651;SDS011;71061;55.714;37.794;2024-01-06T06:44:09;10.25;;;4.25;;
81651;SDS011;71061;55.714;37.794;2024-01-06T06:46:36;14.23;;;5.32;;
81651;SDS011;71061;55.714;37.794;2024-01-06T06:49:02;12.55;;;5.22;;
81651;SDS011;71061;55.714;37.794;2024-01-06T06:51:28;14.90;;;5.47;;
81651;SDS011;71061;55.714;37.794;2024-01-06T06:53:55;15.43;;;6.55;;
81651;SDS011;71061;55.714;37.794;2024-01-06T06:56:22;15.35;;;6.43;;
81651;SDS011;71061;55.714;37.794;2024-01-06T06:58:48;15.00;;;6.20;;
81651;SDS011;71061;55.714;37.794;2024-01-06T07:01:14;16.73;;;6.75;;
81651;SDS011;71061;55.714;37.794;2024-01-06T07:03:41;15.23;;;7.07;;
81651;SDS011;71061;55.714;37.794;2024-01-06T07:06:07;20.27;;;6.88;;
81651;SDS011;71061;55.714;37.794;2024-01-06T07:08:33;19.88;;;7.72;;
81651;SDS011;71061;55.714;37.794;2024-01-06T07:10:59;17.67;;;8.18;;
81651;SDS011;71061;55.714;37.794;2024-01-06T07:13:25;13.38;;;6.22;;
81651;SDS011;71061;55.714;37.794;2024-01-06T07:15:51;15.35;;;7.80;;
81651;SDS011;71061;55.714;37.794;2024-01-06T07:18:17;21.10;;;7.00;;
81651;SDS011;71061;55.714;37.794;2024-01-06T07:20:44;17.30;;;6.90;;
81651;SDS011;71061;55.714;37.794;2024-01-06T07:23:10;15.07;;;5.53;;
81651;SDS011;71061;55.714;37.794;2024-01-06T07:25:35;16.52;;;5.28;;
81651;SDS011;71061;55.714;37.794;2024-01-06T07:28:01;16.55;;;5.03;;
81651;SDS011;71061;55.714;37.794;2024-01-06T07:30:27;13.80;;;5.07;;
81651;SDS011;71061;55.714;37.794;2024-01-06T07:32:53;14.77;;;4.90;;
81651;SDS011;71061;55.714;37.794;2024-01-06T07:35:19;11.50;;;4.80;;
81651;SDS011;71061;55.714;37.794;2024-01-06T07:37:44;17.45;;;5.82;;
81651;SDS011;71061;55.714;37.794;2024-01-06T07:40:10;15.65;;;4.68;;
81651;SDS011;71061;55.714;37.794;2024-01-06T07:42:38;16.02;;;5.53;;
81651;SDS011;71061;55.714;37.794;2024-01-06T07:45:04;15.15;;;7.03;;
81651;SDS011;71061;55.714;37.794;2024-01-06T07:47:30;16.27;;;5.35;;
81651;SDS011;71061;55.714;37.794;2024-01-06T07:49:56;16.75;;;8.30;;
81651;SDS011;71061;55.714;37.794;2024-01-06T07:52:22;18.77;;;6.30;;
81651;SDS011;71061;55.714;37.794;2024-01-06T07:54:48;12.57;;;5.55;;
81651;SDS011;71061;55.714;37.794;2024-01-06T07:57:14;13.45;;;5.68;;
81651;SDS011;71061;55.714;37.794;2024-01-06T07:59:40;10.77;;;4.20;;
81651;SDS011;71061;55.714;37.794;2024-01-06T08:02:06;16.15;;;6.15;;
81651;SDS011;71061;55.714;37.794;2024-01-06T08:04:32;14.52;;;5.80;;
81651;SDS011;71061;55.714;37.794;2024-01-06T08:06:58;15.50;;;6.18;;
81651;SDS011;71061;55.714;37.794;2024-01-06T08:09:23;13.18;;;6.03;;
81651;SDS011;71061;55.714;37.794;2024-01-06T08:11:49;16.15;;;6.00;;
81651;SDS011;71061;55.714;37.794;2024-01-06T08:14:15;15.02;;;5.78;;
81651;SDS011;71061;55.714;37.794;2024-01-06T08:16:43;16.08;;;5.90;;
81651;SDS011;71061;55.714;37.794;2024-01-06T08:19:09;12.75;;;6.22;;
81651;SDS011;71061;55.714;37.794;2024-01-06T08:21:35;19.27;;;6.75;;
81651;SDS011;71061;55.714;37.794;2024-01-06T08:24:01;15.95;;;5.93;;
81651;SDS011;71061;55.714;37.794;2024-01-06T08:26:27;14.25;;;6.57;;
81651;SDS011;71061;55.714;37.794;2024-01-06T08:28:53;16.95;;;6.60;;
81651;SDS011;71061;55.714;37.794;2024-01-06T08:31:19;11.60;;;5.57;;
81651;SDS011;71061;55.714;37.794;2024-01-06T08:33:45;18.20;;;5.13;;
81651;SDS011;71061;55.714;37.794;2024-01-06T08:36:11;16.95;;;6.68;;
81651;SDS011;71061;55.714;37.794;2024-01-06T08:38:37;13.27;;;6.07;;
81651;SDS011;71061;55.714;37.794;2024-01-06T08:41:02;12.73;;;5.47;;
81651;SDS011;71061;55.714;37.794;2024-01-06T08:43:28;15.45;;;7.50;;
81651;SDS011;71061;55.714;37.794;2024-01-06T08:45:54;15.48;;;6.78;;
81651;SDS011;71061;55.714;37.794;2024-01-06T08:48:20;15.90;;;7.13;;
81651;SDS011;71061;55.714;37.794;2024-01-06T08:50:46;14.02;;;6.30;;
81651;SDS011;71061;55.714;37.794;2024-01-06T08:53:12;19.98;;;6.53;;
81651;SDS011;71061;55.714;37.794;2024-01-06T08:55:38;15.57;;;6.45;;
81651;SDS011;71061;55.714;37.794;2024-01-06T08:58:03;15.10;;;6.07;;
81651;SDS011;71061;55.714;37.794;2024-01-06T09:00:29;19.10;;;7.15;;
81651;SDS011;71061;55.714;37.794;2024-01-06T09:02:55;18.73;;;7.97;;
81651;SDS011;71061;55.714;37.794;2024-01-06T09:05:21;18.67;;;7.15;;
81651;SDS011;71061;55.714;37.794;2024-01-06T09:07:46;18.27;;;7.82;;
81651;SDS011;71061;55.714;37.794;2024-01-06T09:10:16;15.90;;;6.47;;
81651;SDS011;71061;55.714;37.794;2024-01-06T09:12:42;19.33;;;8.73;;
81651;SDS011;71061;55.714;37.794;2024-01-06T09:15:08;26.50;;;9.50;;
81651;SDS011;71061;55.714;37.794;2024-01-06T09:17:34;18.02;;;7.43;;
81651;SDS011;71061;55.714;37.794;2024-01-06T09:20:00;16.55;;;6.57;;
81651;SDS011;71061;55.714;37.794;2024-01-06T09:22:29;16.95;;;6.50;;
81651;SDS011;71061;55.714;37.794;2024-01-06T09:24:55;13.50;;;6.40;;
81651;SDS011;71061;55.714;37.794;2024-01-06T09:27:20;19.02;;;6.93;;
81651;SDS011;71061;55.714;37.794;2024-01-06T09:29:46;21.95;;;9.27;;
81651;SDS011;71061;55.714;37.794;2024-01-06T09:32:12;20.33;;;8.13;;
81651;SDS011;71061;55.714;37.794;2024-01-06T09:34:38;17.95;;;8.15;;
81651;SDS011;71061;55.714;37.794;2024-01-06T09:37:04;13.98;;;6.03;;
81651;SDS011;71061;55.714;37.794;2024-01-06T09:39:30;19.15;;;7.43;;
81651;SDS011;71061;55.714;37.794;2024-01-06T09:41:58;17.75;;;7.20;;
81651;SDS011;71061;55.714;37.794;2024-01-06T09:44:24;19.02;;;7.63;;
81651;SDS011;71061;55.714;37.794;2024-01-06T09:46:50;14.35;;;6.32;;
81651;SDS011;71061;55.714;37.794;2024-01-06T09:49:17;15.63;;;7.13;;
81651;SDS011;71061;55.714;37.794;2024-01-06T09:51:49;19.23;;;7.45;;
81651;SDS011;71061;55.714;37.794;2024-01-06T09:54:16;18.00;;;8.20;;
81651;SDS011;71061;55.714;37.794;2024-01-06T09:56:48;20.23;;;7.70;;
81651;SDS011;71061;55.714;37.794;2024-01-06T09:59:14;17.77;;;7.80;;
81651;SDS011;71061;55.714;37.794;2024-01-06T10:01:41;20.75;;;7.93;;
81651;SDS011;71061;55.714;37.794;2024-01-06T10:04:07;18.23;;;7.38;;
81651;SDS011;71061;55.714;37.794;2024-01-06T10:06:33;20.75;;;8.50;;
81651;SDS011;71061;55.714;37.794;2024-01-06T10:08:58;21.45;;;7.93;;
81651;SDS011;71061;55.714;37.794;2024-01-06T10:11:25;20.13;;;7.55;;
81651;SDS011;71061;55.714;37.794;2024-01-06T10:13:52;20.38;;;7.70;;
81651;SDS011;71061;55.714;37.794;2024-01-06T10:16:19;19.08;;;7.47;;
81651;SDS011;71061;55.714;37.794;2024-01-06T10:18:45;17.13;;;8.13;;
81651;SDS011;71061;55.714;37.794;2024-01-06T10:21:11;17.38;;;7.45;;
81651;SDS011;71061;55.714;37.794;2024-01-06T10:23:39;21.95;;;7.45;;
81651;SDS011;71061;55.714;37.794;2024-01-06T10:26:05;19.50;;;9.32;;
81651;SDS011;71061;55.714;37.794;2024-01-06T10:28:30;20.70;;;8.27;;
81651;SDS011;71061;55.714;37.794;2024-01-06T10:30:56;20.35;;;7.93;;
81651;SDS011;71061;55.714;37.794;2024-01-06T10:33:24;17.70;;;8.77;;
81651;SDS011;71061;55.714;37.794;2024-01-06T10:35:51;24.20;;;8.93;;
81651;SDS011;71061;55.714;37.794;2024-01-06T10:38:17;21.58;;;8.40;;
81651;SDS011;71061;55.714;37.794;2024-01-06T10:40:59;21.23;;;8.40;;
81651;SDS011;71061;55.714;37.794;2024-01-06T10:43:32;18.85;;;8.68;;
81651;SDS011;71061;55.714;37.794;2024-01-06T10:46:05;25.73;;;9.73;;
81651;SDS011;71061;55.714;37.794;2024-01-06T10:48:35;19.02;;;8.30;;
81651;SDS011;71061;55.714;37.794;2024-01-06T10:51:03;29.50;;;8.25;;
81651;SDS011;71061;55.714;37.794;2024-01-06T10:53:33;19.50;;;7.68;;
81651;SDS011;71061;55.714;37.794;2024-01-06T10:56:01;20.13;;;7.80;;
81651;SDS011;71061;55.714;37.794;2024-01-06T10:58:27;19.10;;;8.52;;
81651;SDS011;71061;55.714;37.794;2024-01-06T11:00:55;18.35;;;8.10;;
81651;SDS011;71061;55.714;37.794;2024-01-06T11:03:21;23.90;;;10.10;;
81651;SDS011;71061;55.714;37.794;2024-01-06T11:05:48;21.63;;;8.68;;
81651;SDS011;71061;55.714;37.794;2024-01-06T11:08:13;23.02;;;8.93;;
81651;SDS011;71061;55.714;37.794;2024-01-06T11:10:42;25.42;;;10.77;;
81651;SDS011;71061;55.714;37.794;2024-01-06T11:13:09;23.00;;;9.10;;
81651;SDS011;71061;55.714;37.794;2024-01-06T11:15:50;22.60;;;9.93;;
81651;SDS011;71061;55.714;37.794;2024-01-06T11:24:10;18.10;;;8.55;;
81651;SDS011;71061;55.714;37.794;2024-01-06T11:26:52;21.23;;;8.90;;
81651;SDS011;71061;55.714;37.794;2024-01-06T11:29:19;20.08;;;9.30;;
81651;SDS011;71061;55.714;37.794;2024-01-06T11:32:24;18.90;;;9.13;;
81651;SDS011;71061;55.714;37.794;2024-01-06T11:34:51;21.35;;;8.93;;
81651;SDS011;71061;55.714;37.794;2024-01-06T11:37:19;23.02;;;9.20;;
81651;SDS011;71061;55.714;37.794;2024-01-06T11:39:48;22.90;;;8.77;;
81651;SDS011;71061;55.714;37.794;2024-01-06T11:42:15;24.98;;;9.38;;
81651;SDS011;71061;55.714;37.794;2024-01-06T11:44:43;19.65;;;7.63;;
81651;SDS011;71061;55.714;37.794;2024-01-06T11:47:10;19.33;;;8.40;;
81651;SDS011;71061;55.714;37.794;2024-01-06T11:49:37;25.23;;;9.43;;
81651;SDS011;71061;55.714;37.794;2024-01-06T11:52:03;18.73;;;9.15;;
81651;SDS011;71061;55.714;37.794;2024-01-06T11:54:29;18.25;;;9.57;;
81651;SDS011;71061;55.714;37.794;2024-01-06T11:56:55;20.83;;;8.98;;
81651;SDS011;71061;55.714;37.794;2024-01-06T11:59:22;23.05;;;8.75;;
81651;SDS011;71061;55.714;37.794;2024-01-06T12:01:48;19.10;;;8.52;;
81651;SDS011;71061;55.714;37.794;2024-01-06T12:04:14;21.88;;;8.77;;
81651;SDS011;71061;55.714;37.794;2024-01-06T12:06:41;19.63;;;8.80;;
81651;SDS011;71061;55.714;37.794;2024-01-06T12:09:09;22.13;;;9.07;;
81651;SDS011;71061;55.714;37.794;2024-01-06T12:11:36;18.10;;;7.75;;
81651;SDS011;71061;55.714;37.794;2024-01-06T12:14:03;17.15;;;8.38;;
81651;SDS011;71061;55.714;37.794;2024-01-06T12:16:28;22.98;;;10.48;;
81651;SDS011;71061;55.714;37.794;2024-01-06T12:18:56;21.23;;;9.32;;
81651;SDS011;71061;55.714;37.794;2024-01-06T12:21:23;22.30;;;8.93;;
81651;SDS011;71061;55.714;37.794;2024-01-06T12:23:49;17.77;;;9.05;;
81651;SDS011;71061;55.714;37.794;2024-01-06T12:26:16;18.83;;;9.25;;
81651;SDS011;71061;55.714;37.794;2024-01-06T12:28:44;22.20;;;9.23;;
81651;SDS011;71061;55.714;37.794;2024-01-06T12:31:11;25.13;;;9.75;;
81651;SDS011;71061;55.714;37.794;2024-01-06T12:33:38;23.08;;;9.88;;
81651;SDS011;71061;55.714;37.794;2024-01-06T12:36:06;20.13;;;8.50;;
81651;SDS011;71061;55.714;37.794;2024-01-06T12:38:32;25.10;;;9.65;;
81651;SDS011;71061;55.714;37.794;2024-01-06T12:40:59;26.13;;;10.02;;
81651;SDS011;71061;55.714;37.794;2024-01-06T12:43:25;21.00;;;8.30;;
81651;SDS011;71061;55.714;37.794;2024-01-06T12:45:52;20.92;;;9.95;;
81651;SDS011;71061;55.714;37.794;2024-01-06T12:48:18;25.58;;;9.30;;
81651;SDS011;71061;55.714;37.794;2024-01-06T12:50:44;27.50;;;10.88;;
81651;SDS011;71061;55.714;37.794;2024-01-06T12:53:10;28.08;;;10.18;;
81651;SDS011;71061;55.714;37.794;2024-01-06T12:55:37;23.92;;;11.60;;
81651;SDS011;71061;55.714;37.794;2024-01-06T12:58:04;24.40;;;10.15;;
81651;SDS011;71061;55.714;37.794;2024-01-06T13:00:30;22.00;;;10.82;;
81651;SDS011;71061;55.714;37.794;2024-01-06T13:02:56;24.25;;;8.98;;
81651;SDS011;71061;55.714;37.794;2024-01-06T13:05:21;20.38;;;8.82;;
81651;SDS011;71061;55.714;37.794;2024-01-06T13:07:48;23.33;;;9.90;;
81651;SDS011;71061;55.714;37.794;2024-01-06T13:10:14;22.90;;;9.63;;
81651;SDS011;71061;55.714;37.794;2024-01-06T13:12:40;20.27;;;9.38;;
81651;SDS011;71061;55.714;37.794;2024-01-06T13:15:06;23.85;;;10.02;;
81651;SDS011;71061;55.714;37.794;2024-01-06T13:17:36;21.85;;;10.65;;
81651;SDS011;71061;55.714;37.794;2024-01-06T13:20:03;23.55;;;10.70;;
81651;SDS011;71061;55.714;37.794;2024-01-06T13:22:30;25.67;;;10.75;;
81651;SDS011;71061;55.714;37.794;2024-01-06T13:24:56;25.60;;;11.38;;
81651;SDS011;71061;55.714;37.794;2024-01-06T13:27:22;23.45;;;10.63;;
81651;SDS011;71061;55.714;37.794;2024-01-06T13:29:48;24.90;;;12.02;;
81651;SDS011;71061;55.714;37.794;2024-01-06T13:32:14;23.05;;;9.55;;
81651;SDS011;71061;55.714;37.794;2024-01-06T13:34:41;20.75;;;8.93;;
81651;SDS011;71061;55.714;37.794;2024-01-06T13:37:07;24.33;;;10.43;;
81651;SDS011;71061;55.714;37.794;2024-01-06T13:39:33;23.45;;;9.55;;
81651;SDS011;71061;55.714;37.794;2024-01-06T13:41:59;23.23;;;10.25;;
81651;SDS011;71061;55.714;37.794;2024-01-06T13:44:24;22.45;;;9.55;;
81651;SDS011;71061;55.714;37.794;2024-01-06T13:46:50;23.52;;;10.48;;
81651;SDS011;71061;55.714;37.794;2024-01-06T13:49:17;22.35;;;9.77;;
81651;SDS011;71061;55.714;37.794;2024-01-06T13:51:43;23.65;;;11.20;;
81651;SDS011;71061;55.714;37.794;2024-01-06T13:54:09;21.48;;;9.60;;
81651;SDS011;71061;55.714;37.794;2024-01-06T13:56:35;24.23;;;9.98;;
81651;SDS011;71061;55.714;37.794;2024-01-06T13:59:02;25.95;;;12.10;;
81651;SDS011;71061;55.714;37.794;2024-01-06T14:01:28;27.48;;;10.70;;
81651;SDS011;71061;55.714;37.794;2024-01-06T14:03:54;25.05;;;10.65;;
81651;SDS011;71061;55.714;37.794;2024-01-06T14:06:25;24.63;;;9.18;;
81651;SDS011;71061;55.714;37.794;2024-01-06T14:08:54;22.90;;;9.55;;
81651;SDS011;71061;55.714;37.794;2024-01-06T14:11:19;36.72;;;17.52;;
81651;SDS011;71061;55.714;37.794;2024-01-06T14:13:45;20.55;;;9.45;;
81651;SDS011;71061;55.714;37.794;2024-01-06T14:16:14;28.42;;;9.93;;
81651;SDS011;71061;55.714;37.794;2024-01-06T14:18:40;20.98;;;10.40;;
81651;SDS011;71061;55.714;37.794;2024-01-06T14:21:08;26.58;;;11.52;;
81651;SDS011;71061;55.714;37.794;2024-01-06T14:23:35;24.80;;;10.15;;
81651;SDS011;71061;55.714;37.794;2024-01-06T14:26:02;22.48;;;10.73;;